createdAt,value
2018-11-06T00:01:27.284Z,84.57
2018-11-06T00:04:03.157Z,85.60
2018-11-06T00:06:33.668Z,91.87
2018-11-06T00:09:05.032Z,94.63
2018-11-06T00:11:34.797Z,86.27
2018-11-06T00:14:05.752Z,87.37
2018-11-06T00:16:37.060Z,84.57
2018-11-06T00:19:07.122Z,87.00
2018-11-06T00:21:37.412Z,89.47
2018-11-06T00:24:08.218Z,93.20
2018-11-06T00:26:37.900Z,86.47
2018-11-06T00:29:08.032Z,83.30
2018-11-06T00:31:38.204Z,82.67
2018-11-06T00:34:08.180Z,83.83
2018-11-06T00:36:37.924Z,87.60
2018-11-06T00:39:09.328Z,83.97
2018-11-06T00:41:39.184Z,78.00
2018-11-06T00:44:09.545Z,78.10
2018-11-06T00:46:39.982Z,80.90
2018-11-06T00:49:09.936Z,83.27
2018-11-06T00:51:40.167Z,89.03
2018-11-06T00:54:10.477Z,85.93
2018-11-06T00:56:40.623Z,83.70
2018-11-06T00:59:10.647Z,80.47
2018-11-06T01:01:41.301Z,84.70
2018-11-06T01:04:12.462Z,89.80
2018-11-06T01:06:42.447Z,90.17
2018-11-06T01:09:14.198Z,87.93
2018-11-06T01:11:45.044Z,101.93
2018-11-06T01:14:14.963Z,104.50
2018-11-06T01:16:45.308Z,102.13
2018-11-06T01:19:15.270Z,106.70
2018-11-06T01:21:46.004Z,100.50
2018-11-06T01:24:16.569Z,100.23
2018-11-06T01:26:46.328Z,111.53
2018-11-06T01:29:16.210Z,107.03
2018-11-06T01:31:46.240Z,100.77
2018-11-06T01:34:17.529Z,96.43
2018-11-06T01:36:47.596Z,109.87
2018-11-06T01:39:17.479Z,118.60
2018-11-06T01:41:47.656Z,118.00
2018-11-06T01:44:18.299Z,120.73
2018-11-06T01:46:48.959Z,124.37
2018-11-06T01:49:18.812Z,122.27
2018-11-06T01:51:48.500Z,118.43
2018-11-06T01:54:18.380Z,121.83
2018-11-06T01:56:48.419Z,123.00
2018-11-06T01:59:19.787Z,126.67
2018-11-06T02:01:49.764Z,119.23
2018-11-06T02:04:19.437Z,121.43
2018-11-06T02:06:49.596Z,119.63
2018-11-06T02:09:19.604Z,121.53
2018-11-06T02:11:49.526Z,120.57
2018-11-06T02:14:19.846Z,122.57
2018-11-06T02:16:50.246Z,114.23
2018-11-06T02:19:21.088Z,121.13
2018-11-06T02:21:51.131Z,112.47
2018-11-06T02:24:21.125Z,116.23
2018-11-06T02:26:51.027Z,115.73
2018-11-06T02:29:20.956Z,107.33
2018-11-06T02:31:50.836Z,109.37
2018-11-06T02:34:21.532Z,112.30
2018-11-06T02:36:51.917Z,106.83
2018-11-06T02:39:21.834Z,114.83
2018-11-06T02:41:51.859Z,115.53
2018-11-06T02:44:21.840Z,110.20
2018-11-06T02:46:51.727Z,110.23
2018-11-06T02:49:21.447Z,105.77
2018-11-06T02:51:51.332Z,111.03
2018-11-06T02:54:22.332Z,106.97
2018-11-06T02:56:52.608Z,103.83
2018-11-06T02:59:22.516Z,106.37
2018-11-06T03:01:52.935Z,98.93
2018-11-06T03:04:23.631Z,101.93
2018-11-06T03:06:53.544Z,99.20
2018-11-06T03:09:23.520Z,103.43
2018-11-06T03:11:53.621Z,103.20
2018-11-06T03:14:23.521Z,105.57
2018-11-06T03:16:54.269Z,105.63
2018-11-06T03:19:24.037Z,106.67
2018-11-06T03:21:54.064Z,101.70
2018-11-06T03:24:24.307Z,95.73
2018-11-06T03:26:54.024Z,101.30
2018-11-06T03:29:23.780Z,101.53
2018-11-06T03:31:53.451Z,99.97
2018-11-06T03:34:23.667Z,97.70
2018-11-06T03:36:53.633Z,98.70
2018-11-06T03:39:23.750Z,93.80
2018-11-06T03:41:54.287Z,90.07
2018-11-06T03:44:23.987Z,88.63
2018-11-06T03:46:54.060Z,84.63
2018-11-06T03:49:24.153Z,84.47
2018-11-06T03:51:53.975Z,82.50
2018-11-06T03:54:23.984Z,81.33
2018-11-06T03:56:54.205Z,79.73
2018-11-06T03:59:24.147Z,77.90
2018-11-06T04:01:54.191Z,81.10
2018-11-06T04:04:24.243Z,79.77
2018-11-06T04:06:54.074Z,72.80
2018-11-06T04:09:24.342Z,76.67
2018-11-06T04:11:54.335Z,79.47
2018-11-06T04:14:24.226Z,77.20
2018-11-06T04:16:54.399Z,78.70
2018-11-06T04:19:24.372Z,72.57
2018-11-06T04:21:54.491Z,76.13
2018-11-06T04:24:24.320Z,69.97
2018-11-06T04:26:54.169Z,69.30
2018-11-06T04:29:24.443Z,68.20
2018-11-06T04:31:54.272Z,69.77
2018-11-06T04:34:24.226Z,65.77
2018-11-06T04:36:54.807Z,69.00
2018-11-06T04:39:25.167Z,64.43
2018-11-06T04:41:55.296Z,66.00
2018-11-06T04:44:25.056Z,62.87
2018-11-06T04:46:54.791Z,61.90
2018-11-06T04:49:24.849Z,63.27
2018-11-06T04:51:54.512Z,68.37
2018-11-06T04:54:24.183Z,64.03
2018-11-06T04:56:54.555Z,62.17
2018-11-06T04:59:24.242Z,64.50
2018-11-06T05:01:54.223Z,61.47
2018-11-06T05:04:24.223Z,64.50
2018-11-06T05:06:54.163Z,66.90
2018-11-06T05:09:23.884Z,61.10
2018-11-06T05:11:54.255Z,61.77
2018-11-06T05:14:24.130Z,62.23
2018-11-06T05:16:53.894Z,57.77
2018-11-06T05:19:23.914Z,58.07
2018-11-06T05:21:53.708Z,57.07
2018-11-06T05:24:23.463Z,60.30
2018-11-06T05:26:53.198Z,55.27
2018-11-06T05:29:24.024Z,58.00
2018-11-06T05:31:53.714Z,59.27
2018-11-06T05:34:23.647Z,56.17
2018-11-06T05:36:53.323Z,59.70
2018-11-06T05:39:23.106Z,57.70
2018-11-06T05:41:53.107Z,60.10
2018-11-06T05:44:24.848Z,58.80
2018-11-06T05:46:55.755Z,64.90
2018-11-06T05:49:25.595Z,58.50
2018-11-06T05:51:55.266Z,61.57
2018-11-06T05:54:25.196Z,60.57
2018-11-06T05:56:55.230Z,59.03
2018-11-06T05:59:25.208Z,60.73
2018-11-06T06:01:55.161Z,60.53
2018-11-06T06:04:25.344Z,66.03
2018-11-06T06:06:55.100Z,60.30
2018-11-06T06:09:24.797Z,63.47
2018-11-06T06:11:54.695Z,61.67
2018-11-06T06:14:24.867Z,60.63
2018-11-06T06:16:54.759Z,58.40
2018-11-06T06:19:26.295Z,59.80
2018-11-06T06:21:56.422Z,157.87
2018-11-06T06:24:27.355Z,61.67
2018-11-06T06:26:57.067Z,56.30
2018-11-06T06:29:26.825Z,57.77
2018-11-06T06:31:56.845Z,57.53
2018-11-06T06:34:27.114Z,57.93
2018-11-06T06:36:57.733Z,64.77
2018-11-06T06:39:28.511Z,60.20
2018-11-06T06:42:08.808Z,62.60
2018-11-06T06:44:38.534Z,59.27
2018-11-06T06:47:08.247Z,54.73
2018-11-06T06:49:37.948Z,56.10
2018-11-06T06:52:08.004Z,55.93
2018-11-06T06:54:38.216Z,56.07
2018-11-06T06:57:07.745Z,60.97
2018-11-06T06:59:37.407Z,61.57
2018-11-06T07:02:20.729Z,58.10
2018-11-06T07:04:51.093Z,59.83
2018-11-06T07:07:20.748Z,57.50
2018-11-06T07:09:50.433Z,58.20
2018-11-06T07:12:20.219Z,58.97
2018-11-06T07:14:50.187Z,56.63
2018-11-06T07:17:22.760Z,56.50
2018-11-06T07:19:52.611Z,56.07
2018-11-06T07:22:22.577Z,53.27
2018-11-06T07:24:52.229Z,49.50
2018-11-06T07:27:23.018Z,47.20
2018-11-06T07:29:52.773Z,47.17
2018-11-06T07:32:22.480Z,47.87
2018-11-06T07:34:52.788Z,46.43
2018-11-06T07:37:23.383Z,46.50
2018-11-06T07:39:53.052Z,49.40
2018-11-06T07:42:23.324Z,48.60
2018-11-06T07:44:55.588Z,48.13
2018-11-06T07:47:25.534Z,48.70
2018-11-06T07:49:55.315Z,47.03
2018-11-06T07:52:27.833Z,45.23
2018-11-06T07:54:57.724Z,47.07
2018-11-06T07:57:27.784Z,46.03
2018-11-06T07:59:57.449Z,45.93
2018-11-06T08:02:29.223Z,47.53
2018-11-06T08:04:59.328Z,47.40
2018-11-06T08:07:28.991Z,49.17
2018-11-06T08:09:58.640Z,49.73
2018-11-06T08:12:28.839Z,49.87
2018-11-06T08:14:58.611Z,48.27
2018-11-06T08:17:28.673Z,47.93
2018-11-06T08:19:58.574Z,50.03
2018-11-06T08:22:28.898Z,48.63
2018-11-06T08:24:58.560Z,48.70
2018-11-06T08:27:28.495Z,47.53
2018-11-06T08:29:58.441Z,47.57
2018-11-06T08:32:28.867Z,49.77
2018-11-06T08:34:58.035Z,50.37
2018-11-06T08:37:27.979Z,52.40
2018-11-06T08:39:57.900Z,51.57
2018-11-06T08:42:28.349Z,56.20
2018-11-06T08:45:02.058Z,54.10
2018-11-06T08:47:32.479Z,55.20
2018-11-06T08:50:04.539Z,54.90
2018-11-06T08:52:34.438Z,50.43
2018-11-06T08:55:04.178Z,49.53
2018-11-06T08:57:33.870Z,51.43
2018-11-06T09:00:03.628Z,50.73
2018-11-06T09:02:34.402Z,49.23
2018-11-06T09:05:04.541Z,44.83
2018-11-06T09:07:34.480Z,45.83
2018-11-06T09:10:04.348Z,44.40
2018-11-06T09:12:34.184Z,42.93
2018-11-06T09:15:04.244Z,45.87
2018-11-06T09:17:33.937Z,43.67
2018-11-06T09:20:03.996Z,42.70
2018-11-06T09:22:33.687Z,42.80
2018-11-06T09:25:03.415Z,42.40
2018-11-06T09:27:34.267Z,41.70
2018-11-06T09:30:03.956Z,41.30
2018-11-06T09:32:33.688Z,41.80
2018-11-06T09:35:03.478Z,43.10
2018-11-06T09:37:33.259Z,41.33
2018-11-06T09:40:02.951Z,42.90
2018-11-06T09:42:32.702Z,43.20
2018-11-06T09:45:02.487Z,43.20
2018-11-06T09:47:32.588Z,42.40
2018-11-06T09:50:02.338Z,41.83
2018-11-06T09:52:32.057Z,41.30
2018-11-06T09:55:01.807Z,42.60
2018-11-06T09:57:34.060Z,41.77
2018-11-06T10:00:04.206Z,41.70
2018-11-06T10:02:33.983Z,40.27
2018-11-06T10:05:03.725Z,40.27
2018-11-06T10:07:33.732Z,37.90
2018-11-06T10:10:03.529Z,37.47
2018-11-06T10:12:33.587Z,38.77
2018-11-06T10:15:03.336Z,39.20
2018-11-06T10:17:33.064Z,38.37
2018-11-06T10:20:05.621Z,40.17
2018-11-06T10:22:35.499Z,41.13
2018-11-06T10:25:05.528Z,41.23
2018-11-06T10:27:35.306Z,41.37
2018-11-06T10:30:05.172Z,43.43
2018-11-06T10:32:34.918Z,40.60
2018-11-06T10:35:04.724Z,40.67
2018-11-06T10:37:34.400Z,41.23
2018-11-06T10:40:04.787Z,40.23
2018-11-06T10:42:34.592Z,39.77
2018-11-06T10:45:04.400Z,41.70
2018-11-06T10:47:34.337Z,41.33
2018-11-06T10:50:04.204Z,40.30
2018-11-06T10:52:33.924Z,39.90
2018-11-06T10:55:03.716Z,40.83
2018-11-06T10:57:33.582Z,40.10
2018-11-06T11:00:03.957Z,40.27
2018-11-06T11:02:38.952Z,40.33
2018-11-06T11:05:08.638Z,42.00
2018-11-06T11:07:38.351Z,40.87
2018-11-06T11:10:08.511Z,41.60
2018-11-06T11:12:38.394Z,41.27
2018-11-06T11:15:08.065Z,44.57
2018-11-06T11:17:38.212Z,45.10
2018-11-06T11:20:10.768Z,42.10
2018-11-06T11:22:40.916Z,43.17
2018-11-06T11:25:12.955Z,43.30
2018-11-06T11:27:43.405Z,42.63
2018-11-06T11:30:14.253Z,40.87
2018-11-06T11:32:48.505Z,40.73
2018-11-06T11:35:18.265Z,42.03
2018-11-06T11:37:48.035Z,39.13
2018-11-06T11:40:18.087Z,40.37
2018-11-06T11:42:47.784Z,40.73
2018-11-06T11:45:18.061Z,40.20
2018-11-06T11:47:47.725Z,39.00
2018-11-06T11:50:17.596Z,40.40
2018-11-06T11:52:47.279Z,39.53
2018-11-06T11:55:16.957Z,38.87
2018-11-06T11:57:47.050Z,38.93
2018-11-06T12:00:18.816Z,37.13
2018-11-06T12:02:48.832Z,37.00
2018-11-06T12:05:18.503Z,36.13
2018-11-06T12:07:48.238Z,33.77
2018-11-06T12:10:18.055Z,36.10
2018-11-06T12:12:48.060Z,45.73
2018-11-06T12:15:18.516Z,37.73
2018-11-06T12:17:48.510Z,34.43
2018-11-06T12:20:18.350Z,34.93
2018-11-06T12:22:48.231Z,33.50
2018-11-06T12:25:18.139Z,32.77
2018-11-06T12:27:48.308Z,33.33
2018-11-06T12:30:18.559Z,32.17
2018-11-06T12:32:48.332Z,29.93
2018-11-06T12:35:18.020Z,29.83
2018-11-06T12:37:47.758Z,32.00
2018-11-06T12:40:17.479Z,30.07
2018-11-06T12:42:47.731Z,30.63
2018-11-06T12:45:17.978Z,28.73
2018-11-06T12:47:48.577Z,29.23
2018-11-06T12:50:19.678Z,30.53
2018-11-06T12:52:50.256Z,31.30
2018-11-06T12:55:20.054Z,30.57
2018-11-06T12:57:49.788Z,27.87
2018-11-06T13:00:20.556Z,28.13
2018-11-06T13:02:50.652Z,27.90
2018-11-06T13:05:20.396Z,28.40
2018-11-06T13:07:50.523Z,28.13
2018-11-06T13:10:20.652Z,28.10
2018-11-06T13:12:54.452Z,25.60
2018-11-06T13:15:24.245Z,24.93
2018-11-06T13:17:54.229Z,26.97
2018-11-06T13:20:25.004Z,26.87
2018-11-06T13:22:54.776Z,27.17
2018-11-06T13:25:24.500Z,26.03
2018-11-06T13:27:54.375Z,26.57
2018-11-06T13:30:24.066Z,24.17
2018-11-06T13:32:53.791Z,23.80
2018-11-06T13:35:23.541Z,23.90
2018-11-06T13:37:53.315Z,23.23
2018-11-06T13:40:23.428Z,24.37
2018-11-06T13:42:53.324Z,245.93
2018-11-06T13:45:24.584Z,27.03
2018-11-06T13:47:54.498Z,22.80
2018-11-06T13:50:24.312Z,22.00
2018-11-06T13:52:54.096Z,22.77
2018-11-06T13:55:23.772Z,23.23
2018-11-06T13:57:53.580Z,21.00
2018-11-06T14:00:23.288Z,23.50
2018-11-06T14:02:53.197Z,23.70
2018-11-06T14:05:22.875Z,23.10
2018-11-06T14:07:52.643Z,22.90
2018-11-06T14:10:22.304Z,22.80
2018-11-06T14:12:52.214Z,23.03
2018-11-06T14:15:22.399Z,23.43
2018-11-06T14:17:52.140Z,23.50
2018-11-06T14:20:21.825Z,22.07
2018-11-06T14:22:52.019Z,22.17
2018-11-06T14:25:21.728Z,23.23
2018-11-06T14:27:52.260Z,23.23
2018-11-06T14:30:22.245Z,25.23
2018-11-06T14:32:51.969Z,25.17
2018-11-06T14:35:21.752Z,24.63
2018-11-06T14:37:51.503Z,24.90
2018-11-06T14:40:21.581Z,27.17
2018-11-06T14:42:51.745Z,25.33
2018-11-06T14:45:22.474Z,26.40
2018-11-06T14:47:52.440Z,26.53
2018-11-06T14:50:22.196Z,26.43
2018-11-06T14:52:51.980Z,26.73
2018-11-06T14:55:21.733Z,27.33
2018-11-06T14:57:51.580Z,26.87
2018-11-06T15:00:22.124Z,28.47
2018-11-06T15:02:53.339Z,28.73
2018-11-06T15:05:23.951Z,27.93
2018-11-06T15:07:54.662Z,27.27
2018-11-06T15:10:25.516Z,28.73
2018-11-06T15:13:00.514Z,28.87
2018-11-06T15:15:31.219Z,28.17
2018-11-06T15:18:00.911Z,28.83
2018-11-06T15:20:31.289Z,29.77
2018-11-06T15:23:01.112Z,28.27
2018-11-06T15:25:31.093Z,27.37
2018-11-06T15:28:01.064Z,28.87
2018-11-06T15:30:32.124Z,29.23
2018-11-06T15:33:02.358Z,30.43
2018-11-06T15:35:32.368Z,30.87
2018-11-06T15:38:02.188Z,31.73
2018-11-06T15:40:32.263Z,31.67
2018-11-06T15:43:02.311Z,32.57
2018-11-06T15:45:32.106Z,32.53
2018-11-06T15:48:01.884Z,33.10
2018-11-06T15:50:31.925Z,32.97
2018-11-06T15:53:02.350Z,33.13
2018-11-06T15:55:32.157Z,34.83
2018-11-06T15:58:02.136Z,33.57
2018-11-06T16:00:33.028Z,34.93
2018-11-06T16:03:02.859Z,35.47
2018-11-06T16:05:32.622Z,36.50
2018-11-06T16:08:03.496Z,35.83
2018-11-06T16:10:33.235Z,34.90
2018-11-06T16:13:04.981Z,35.57
2018-11-06T16:15:34.927Z,35.67
2018-11-06T16:18:05.804Z,37.43
2018-11-06T16:20:35.638Z,37.87
2018-11-06T16:25:49.532Z,38.40
2018-11-06T16:28:20.568Z,36.80
2018-11-06T16:30:50.258Z,36.13
2018-11-06T16:33:20.245Z,36.57
2018-11-06T16:35:50.070Z,35.30
2018-11-06T16:38:19.977Z,38.93
2018-11-06T16:40:50.033Z,37.60
2018-11-06T16:43:19.981Z,38.97
2018-11-06T16:45:49.975Z,39.17
2018-11-06T16:48:19.675Z,42.87
2018-11-06T16:50:50.023Z,42.30
2018-11-06T16:53:20.399Z,45.37
2018-11-06T16:55:50.149Z,43.73
2018-11-06T16:58:21.602Z,43.90
2018-11-06T17:00:51.598Z,45.20
2018-11-06T17:03:21.384Z,45.97
2018-11-06T17:05:51.468Z,46.17
2018-11-06T17:08:21.595Z,45.00
2018-11-06T17:10:51.304Z,47.07
2018-11-06T17:13:21.305Z,45.17
2018-11-06T17:16:11.674Z,45.40
2018-11-06T17:18:42.230Z,46.93
2018-11-06T17:21:12.013Z,45.73
2018-11-06T17:23:42.084Z,44.60
2018-11-06T17:26:12.088Z,45.40
2018-11-06T17:28:41.855Z,46.23
2018-11-06T17:31:11.829Z,47.07
2018-11-06T17:33:41.576Z,45.60
2018-11-06T17:36:11.803Z,48.67
2018-11-06T17:38:41.543Z,46.53
2018-11-06T17:41:11.281Z,47.87
2018-11-06T17:43:41.304Z,45.70
2018-11-06T17:46:11.017Z,46.63
2018-11-06T17:48:40.759Z,47.23
2018-11-06T17:51:10.665Z,45.67
2018-11-06T17:53:40.538Z,47.70
2018-11-06T17:56:10.485Z,48.17
2018-11-06T17:58:40.322Z,49.10
2018-11-06T18:01:10.668Z,49.57
2018-11-06T18:03:40.640Z,49.27
2018-11-06T18:06:10.413Z,50.93
2018-11-06T18:08:40.283Z,49.30
2018-11-06T18:11:10.196Z,54.53
2018-11-06T18:13:39.955Z,52.60
2018-11-06T18:16:10.140Z,50.00
2018-11-06T18:18:39.896Z,51.00
2018-11-06T18:21:09.866Z,53.00
2018-11-06T18:23:39.665Z,50.17
2018-11-06T18:26:09.466Z,52.67
2018-11-06T18:28:39.208Z,53.43
2018-11-06T18:31:09.007Z,53.43
2018-11-06T18:33:38.757Z,54.90
2018-11-06T18:36:08.474Z,53.17
2018-11-06T18:38:38.214Z,52.57
2018-11-06T18:41:07.941Z,55.00
2018-11-06T18:43:37.738Z,54.57
2018-11-06T18:46:07.975Z,55.93
2018-11-06T18:48:37.841Z,50.00
2018-11-06T18:51:07.620Z,51.17
2018-11-06T18:53:37.494Z,50.67
2018-11-06T18:56:07.499Z,51.47
2018-11-06T18:58:37.633Z,51.97
2018-11-06T19:01:08.304Z,53.77
2018-11-06T19:03:38.199Z,53.57
2018-11-06T19:06:08.345Z,54.00
2018-11-06T19:08:38.193Z,53.47
2018-11-06T19:11:08.050Z,55.53
2018-11-06T19:13:37.904Z,55.47
2018-11-06T19:16:07.768Z,54.20
2018-11-06T19:18:38.809Z,55.13
2018-11-06T19:21:09.754Z,58.93
2018-11-06T19:23:41.424Z,56.87
2018-11-06T19:26:11.993Z,58.90
2018-11-06T19:28:42.761Z,60.70
2018-11-06T19:31:12.963Z,58.60
2018-11-06T19:33:42.871Z,59.37
2018-11-06T19:36:12.859Z,59.63
2018-11-06T19:38:42.761Z,59.20
2018-11-06T19:41:12.683Z,58.07
2018-11-06T19:43:42.774Z,58.27
2018-11-06T19:46:12.737Z,62.07
2018-11-06T19:48:42.985Z,57.67
2018-11-06T19:51:13.514Z,58.33
2018-11-06T19:53:44.258Z,55.90
2018-11-06T19:56:14.428Z,60.30
2018-11-06T19:58:45.026Z,60.63
2018-11-06T20:01:15.584Z,60.63
2018-11-06T20:03:45.902Z,57.10
2018-11-06T20:06:16.728Z,56.53
2018-11-06T20:08:47.269Z,57.60
2018-11-06T20:11:17.374Z,56.60
2018-11-06T20:13:47.240Z,56.30
2018-11-06T20:16:17.713Z,59.33
2018-11-06T20:18:47.784Z,60.63
2018-11-06T20:21:18.033Z,59.60
2018-11-06T20:23:47.969Z,61.57
2018-11-06T20:26:18.219Z,60.37
2018-11-06T20:28:49.842Z,58.90
2018-11-06T20:31:19.874Z,61.47
2018-11-06T20:33:49.797Z,63.00
2018-11-06T20:36:19.597Z,61.27
2018-11-06T20:38:49.920Z,63.47
2018-11-06T20:41:36.454Z,63.03
2018-11-06T20:44:11.520Z,60.53
2018-11-06T20:46:43.449Z,62.70
2018-11-06T20:49:13.963Z,58.40
2018-11-06T20:51:44.623Z,61.70
2018-11-06T20:54:14.709Z,59.03
2018-11-06T20:56:45.591Z,60.37
2018-11-06T20:59:16.284Z,59.37
2018-11-06T21:01:46.101Z,59.80
2018-11-06T21:04:17.012Z,57.17
2018-11-06T21:06:47.875Z,58.27
2018-11-06T21:09:18.146Z,61.30
2018-11-06T21:11:48.086Z,61.87
2018-11-06T21:14:17.969Z,59.33
2018-11-06T21:16:48.559Z,59.30
2018-11-06T21:19:18.986Z,56.70
2018-11-06T21:21:48.844Z,59.33
2018-11-06T21:24:19.137Z,68.10
2018-11-06T21:26:49.661Z,70.67
2018-11-06T21:29:19.543Z,57.90
2018-11-06T21:31:49.856Z,59.03
2018-11-06T21:34:20.774Z,59.77
2018-11-06T21:36:50.541Z,60.47
2018-11-06T21:39:20.754Z,59.83
2018-11-06T21:41:50.762Z,56.03
2018-11-06T21:44:20.544Z,55.47
2018-11-06T21:46:50.689Z,58.53
2018-11-06T21:49:20.412Z,57.60
2018-11-06T21:51:50.492Z,57.70
2018-11-06T21:54:20.335Z,58.87
2018-11-06T21:56:50.097Z,60.23
2018-11-06T21:59:22.782Z,60.33
2018-11-06T22:01:52.774Z,61.40
2018-11-06T22:04:22.543Z,61.60
2018-11-06T22:06:52.807Z,59.70
2018-11-06T22:09:22.564Z,62.03
2018-11-06T22:11:52.281Z,59.27
2018-11-06T22:14:22.509Z,63.83
2018-11-06T22:16:52.693Z,62.80
2018-11-06T22:19:22.388Z,62.77
2018-11-06T22:21:52.143Z,76.50
2018-11-06T22:24:22.143Z,69.80
2018-11-06T22:26:51.974Z,63.77
2018-11-06T22:29:21.979Z,63.07
2018-11-06T22:31:52.717Z,62.37
2018-11-06T22:34:23.096Z,64.07
2018-11-06T22:36:53.286Z,60.57
2018-11-06T22:39:23.788Z,66.00
2018-11-06T22:41:54.131Z,62.90
2018-11-06T22:44:23.893Z,62.13
2018-11-06T22:46:53.601Z,65.80
2018-11-06T22:49:23.673Z,67.23
2018-11-06T22:51:53.565Z,67.20
2018-11-06T22:54:23.423Z,67.13
2018-11-06T22:56:53.583Z,68.87
2018-11-06T22:59:23.708Z,64.50
2018-11-06T23:01:53.509Z,66.20
2018-11-06T23:04:23.470Z,66.87
2018-11-06T23:06:53.773Z,66.30
2018-11-06T23:09:23.650Z,67.63
2018-11-06T23:11:53.789Z,65.47
2018-11-06T23:14:24.157Z,70.87
2018-11-06T23:16:54.520Z,62.90
2018-11-06T23:19:24.475Z,63.10
2018-11-06T23:21:54.418Z,63.70
2018-11-06T23:24:25.299Z,62.37
2018-11-06T23:26:55.051Z,67.10
2018-11-06T23:29:25.020Z,74.77
2018-11-06T23:31:55.201Z,67.97
2018-11-06T23:34:24.895Z,62.10
2018-11-06T23:36:55.330Z,66.67
2018-11-06T23:39:25.301Z,60.50
2018-11-06T23:41:55.152Z,61.10
2018-11-06T23:44:25.265Z,60.30
2018-11-06T23:46:54.964Z,65.10
2018-11-06T23:49:24.760Z,61.83
2018-11-06T23:51:54.418Z,62.77
2018-11-06T23:54:24.281Z,66.30
2018-11-06T23:56:54.187Z,68.37
2018-11-06T23:59:23.826Z,71.60
